Sks Tiete — LAKU5 — position and weather

sailwx.info

Track history (hours):
 
Tides and Currents Weather Stations Pressure Air Temp Water Temp Dewpoint Dewpoint Depression Visibility Wind Speed Wind Dir Waves Ship Positions

Sks Tiete

Last reported at 2018-Jun-18 00:59 UTC. Time now 2018-Jun-22 07:35 UTC.
Position N 28°45' W 014°41'.

Length 244 m; draft 9.6 m.

Type: Tanker. MMSI: 257578000.

Date/timePositionNaut miles runAvg speedWind from/ knotsBaromVisibWave heightAir tempDewpointWater temp
2018-Jun-18 00:59N 28°45' W 014°41'4 9.1
2018-Jun-18 00:29N 28°42' W 014°45'5 9.8
2018-Jun-18 00:00N 28°38' W 014°48'5 9.5
2018-Jun-17 23:30N 28°34' W 014°51'5 9.6
2018-Jun-17 23:00N 28°31' W 014°55'5 9.5
2018-Jun-17 22:30N 28°27' W 014°58'5 9.5
2018-Jun-17 22:00N 28°23' W 015°01'5 9.3
2018-Jun-17 21:30N 28°19' W 015°04'5 9.1
2018-Jun-17 20:59N 28°16' W 015°08'4 9.1
2018-Jun-17 20:30N 28°12' W 015°11'5 9.5
2018-Jun-17 19:58N 28°09' W 015°15'4 9.4
2018-Jun-17 19:30N 28°06' W 015°19'2 4.9
2018-Jun-17 19:00N 28°05' W 015°21'0 0.9
2018-Jun-17 18:30N 28°05' W 015°22'1 1.3
2018-Jun-17 18:00N 28°06' W 015°21'1 1.6
2018-Jun-17 17:30N 28°06' W 015°20'1 2.0
2018-Jun-17 16:57N 28°06' W 015°19'2 3.4
2018-Jun-17 16:30N 28°07' W 015°17'2 3.9
2018-Jun-17 16:00N 28°07' W 015°15'2 4.3
2018-Jun-17 15:29N 28°07' W 015°13'3 5.8
2018-Jun-17 15:00N 28°08' W 015°09'4 7.2
2018-Jun-17 14:30N 28°09' W 015°06'4 8.8
2018-Jun-17 14:00N 28°08' W 015°01'4 8.7
2018-Jun-17 13:30N 28°06' W 014°56'5 9.0
2018-Jun-17 13:00N 28°01' W 014°58'5 9.1
2018-Jun-17 12:30N 27°57' W 014°60'5 9.6
2018-Jun-17 12:00N 27°52' W 015°02'511.0
2018-Jun-17 11:30N 27°47' W 015°04'610.7
2018-Jun-17 10:56N 27°42' W 015°07'410.1
2018-Jun-17 10:30N 27°38' W 015°10'510.5
2018-Jun-17 10:00N 27°34' W 015°13'  
Track history (hours):
 
Tides and Currents Weather Stations Pressure Air Temp Water Temp Dewpoint Dewpoint Depression Visibility Wind Speed Wind Dir Waves Ship Positions

Sks Tiete

Last reported at 2018-Jun-18 00:59 UTC. Time now 2018-Jun-22 07:35 UTC.
Position N 28°45' W 014°41'.

Length 244 m; draft 9.6 m.

Type: Tanker. MMSI: 257578000.

Date/timePositionNaut miles runAvg speedWind from/ knotsBaromVisibWave heightAir tempDewpointWater temp
2018-Jun-18 00:59N 28°45' W 014°41'4 9.1
2018-Jun-18 00:29N 28°42' W 014°45'5 9.8
2018-Jun-18 00:00N 28°38' W 014°48'5 9.5
2018-Jun-17 23:30N 28°34' W 014°51'5 9.6
2018-Jun-17 23:00N 28°31' W 014°55'5 9.5
2018-Jun-17 22:30N 28°27' W 014°58'5 9.5
2018-Jun-17 22:00N 28°23' W 015°01'5 9.3
2018-Jun-17 21:30N 28°19' W 015°04'5 9.1
2018-Jun-17 20:59N 28°16' W 015°08'4 9.1
2018-Jun-17 20:30N 28°12' W 015°11'5 9.5
2018-Jun-17 19:58N 28°09' W 015°15'4 9.4
2018-Jun-17 19:30N 28°06' W 015°19'2 4.9
2018-Jun-17 19:00N 28°05' W 015°21'0 0.9
2018-Jun-17 18:30N 28°05' W 015°22'1 1.3
2018-Jun-17 18:00N 28°06' W 015°21'1 1.6
2018-Jun-17 17:30N 28°06' W 015°20'1 2.0
2018-Jun-17 16:57N 28°06' W 015°19'2 3.4
2018-Jun-17 16:30N 28°07' W 015°17'2 3.9
2018-Jun-17 16:00N 28°07' W 015°15'2 4.3
2018-Jun-17 15:29N 28°07' W 015°13'3 5.8
2018-Jun-17 15:00N 28°08' W 015°09'4 7.2
2018-Jun-17 14:30N 28°09' W 015°06'4 8.8
2018-Jun-17 14:00N 28°08' W 015°01'4 8.7
2018-Jun-17 13:30N 28°06' W 014°56'5 9.0
2018-Jun-17 13:00N 28°01' W 014°58'5 9.1
2018-Jun-17 12:30N 27°57' W 014°60'5 9.6
2018-Jun-17 12:00N 27°52' W 015°02'511.0
2018-Jun-17 11:30N 27°47' W 015°04'610.7
2018-Jun-17 10:56N 27°42' W 015°07'410.1
2018-Jun-17 10:30N 27°38' W 015°10'510.5
2018-Jun-17 10:00N 27°34' W 015°13'  

Dump ship's entire track history